Time;durP1;ratioP1;P1;durP2;ratioP2;P2;SDS_P1;SDS_P2;PMS_P1;PMS_P2;Temp;Humidity;BMP_temperature;BMP_pressure;BME280_temperature;BME280_humidity;BME280_pressure;Samples;Min_cycle;Max_cycle;Signal;HPM_P1;HPM_P2
2022/07/08 00:02:23;;;;;;;11.50;3.47;;;16.70;99.90;;;;;;5031358;28;20181;-58
2022/07/08 00:04:49;;;;;;;6.28;2.88;;;16.70;99.90;;;;;;5031097;28;20184;-58
2022/07/08 00:07:15;;;;;;;9.07;2.67;;;16.60;99.90;;;;;;5031609;28;20307;-60
2022/07/08 00:09:40;;;;;;;9.48;3.78;;;16.60;99.90;;;;;;5030461;28;20190;-60
2022/07/08 00:12:06;;;;;;;9.55;3.15;;;16.60;99.90;;;;;;5031834;28;20201;-58
2022/07/08 00:14:32;;;;;;;8.73;3.35;;;17.20;99.90;;;;;;5031339;28;20182;-59
2022/07/08 00:16:58;;;;;;;11.43;3.17;;;16.50;99.90;;;;;;5030765;28;20227;-59
2022/07/08 00:19:24;;;;;;;9.23;3.30;;;16.50;99.90;;;;;;5031004;28;20173;-59
2022/07/08 00:21:50;;;;;;;7.15;2.90;;;16.40;99.90;;;;;;5031714;28;20262;-59
2022/07/08 00:24:22;;;;;;;8.52;3.65;;;16.40;99.90;;;;;;5032129;28;20166;-57
2022/07/08 00:26:48;;;;;;;12.48;3.30;;;16.30;99.90;;;;;;5030931;28;20178;-58
2022/07/08 00:29:21;;;;;;;8.73;3.10;;;16.30;99.90;;;;;;5031473;28;20659;-59
2022/07/08 00:31:46;;;;;;;10.35;3.40;;;16.30;99.90;;;;;;5030232;28;20189;-59
2022/07/08 00:34:12;;;;;;;11.60;3.55;;;16.20;99.90;;;;;;5031168;28;20628;-59
2022/07/08 00:36:38;;;;;;;12.00;4.00;;;16.10;99.90;;;;;;5031172;28;20218;-60
2022/07/08 00:39:04;;;;;;;10.52;3.78;;;16.20;99.90;;;;;;5031001;28;20617;-60
2022/07/08 00:41:30;;;;;;;14.55;3.75;;;16.10;99.90;;;;;;5031186;28;20181;-58
2022/07/08 00:43:56;;;;;;;9.25;3.50;;;16.20;99.90;;;;;;5031298;28;20169;-59
2022/07/08 00:46:25;;;;;;;10.48;3.22;;;16.20;99.90;;;;;;5030780;28;20200;-55
2022/07/08 00:48:51;;;;;;;8.32;3.40;;;16.20;99.90;;;;;;5031078;28;20511;-55
2022/07/08 00:51:18;;;;;;;15.18;3.70;;;16.20;99.90;;;;;;5030785;28;20177;-55
2022/07/08 00:53:50;;;;;;;11.05;3.47;;;16.20;99.90;;;;;;5031005;28;20174;-55
2022/07/08 00:56:17;;;;;;;9.43;3.50;;;16.20;99.90;;;;;;5030770;28;20292;-55
2022/07/08 00:58:45;;;;;;;6.10;3.10;;;16.20;99.90;;;;;;5030752;28;20198;-55
2022/07/08 01:01:11;;;;;;;8.82;3.70;;;16.10;99.90;;;;;;5030963;28;20178;-55
2022/07/08 01:03:38;;;;;;;8.07;3.03;;;15.90;99.90;;;;;;5030927;28;20283;-54
2022/07/08 01:06:04;;;;;;;6.85;3.33;;;15.90;99.90;;;;;;5030886;28;20193;-56
2022/07/08 01:08:30;;;;;;;9.48;3.85;;;14.00;99.90;;;;;;5030970;28;20177;-56
2022/07/08 01:10:56;;;;;;;8.93;3.67;;;15.90;99.90;;;;;;5030079;28;20174;-55
2022/07/08 01:13:24;;;;;;;7.72;3.38;;;15.90;99.90;;;;;;5031163;28;20188;-56
2022/07/08 01:15:50;;;;;;;11.00;3.50;;;15.90;99.90;;;;;;5030220;28;20210;-56
2022/07/08 01:18:26;;;;;;;8.23;4.07;;;15.70;99.90;;;;;;5029647;28;20174;-57
2022/07/08 01:20:52;;;;;;;10.65;4.28;;;15.70;99.90;;;;;;5031187;28;20620;-57
2022/07/08 01:23:18;;;;;;;10.60;3.78;;;15.60;99.90;;;;;;5029272;28;20186;-57
2022/07/08 01:25:46;;;;;;;9.98;4.40;;;15.60;99.90;;;;;;5030541;28;20724;-57
2022/07/08 01:28:12;;;;;;;9.35;3.95;;;15.60;99.90;;;;;;5030948;28;20181;-57
2022/07/08 01:30:38;;;;;;;11.73;4.07;;;15.60;99.90;;;;;;5030482;28;20169;-56
2022/07/08 01:33:04;;;;;;;11.70;4.28;;;15.70;99.90;;;;;;5030436;28;20178;-57
2022/07/08 01:35:30;;;;;;;11.48;4.10;;;15.70;99.90;;;;;;5030608;28;20178;-57
2022/07/08 01:37:56;;;;;;;16.00;4.90;;;15.80;99.90;;;;;;5030984;28;20181;-57
2022/07/08 01:40:22;;;;;;;8.30;4.05;;;15.80;99.90;;;;;;5030655;28;20574;-57
2022/07/08 01:42:47;;;;;;;9.50;3.83;;;15.80;99.90;;;;;;5030563;28;20189;-57
2022/07/08 01:45:14;;;;;;;10.23;4.20;;;15.80;99.90;;;;;;5034547;28;20170;-57
2022/07/08 01:47:40;;;;;;;10.35;4.25;;;15.80;99.90;;;;;;5034661;28;20169;-57
2022/07/08 01:50:07;;;;;;;9.43;4.32;;;15.80;99.90;;;;;;5034840;28;20213;-58
2022/07/08 01:52:32;;;;;;;9.35;4.03;;;15.80;99.90;;;;;;5034510;28;20174;-57
2022/07/08 01:54:58;;;;;;;9.98;5.25;;;15.90;99.90;;;;;;5034419;28;20183;-56
2022/07/08 01:57:25;;;;;;;8.20;4.28;;;15.80;99.90;;;;;;5034319;28;20766;-57
2022/07/08 01:59:53;;;;;;;10.55;4.38;;;15.60;99.90;;;;;;5034802;28;20174;-57
2022/07/08 02:02:20;;;;;;;7.50;3.85;;;15.80;99.90;;;;;;5033922;28;20174;-57
2022/07/08 02:04:46;;;;;;;10.60;3.88;;;15.80;99.90;;;;;;5014773;28;20724;-57
2022/07/08 02:07:13;;;;;;;10.45;3.78;;;15.90;99.90;;;;;;5023028;28;20308;-56
2022/07/08 02:09:40;;;;;;;12.90;4.07;;;15.80;99.90;;;;;;5033531;28;20174;-57
2022/07/08 02:12:19;;;;;;;13.77;4.40;;;15.80;99.90;;;;;;5033929;28;20663;-57
2022/07/08 02:15:01;;;;;;;13.57;4.40;;;15.80;99.90;;;;;;5034161;28;20174;-57
2022/07/08 02:17:29;;;;;;;10.95;4.25;;;15.80;99.90;;;;;;5033926;28;20210;-56
2022/07/08 02:19:55;;;;;;;9.45;3.85;;;15.70;99.90;;;;;;5033612;28;20706;-56
2022/07/08 02:22:21;;;;;;;8.88;4.88;;;15.80;99.90;;;;;;5033419;28;20264;-56
2022/07/08 02:24:51;;;;;;;13.55;4.40;;;15.80;99.90;;;;;;5034177;28;20182;-56
2022/07/08 02:27:17;;;;;;;7.38;4.05;;;15.80;99.90;;;;;;5033950;28;20178;-55
2022/07/08 02:29:43;;;;;;;10.00;4.13;;;15.80;99.90;;;;;;5032865;28;20173;-56
2022/07/08 02:32:09;;;;;;;10.38;4.15;;;15.80;99.90;;;;;;5033630;28;20300;-56
2022/07/08 02:34:36;;;;;;;11.73;4.07;;;15.80;99.90;;;;;;5033830;28;20660;-56
2022/07/08 02:37:01;;;;;;;12.30;4.40;;;15.80;99.90;;;;;;5033628;28;20217;-55
2022/07/08 02:39:28;;;;;;;9.30;4.13;;;15.70;99.90;;;;;;5033761;28;20261;-56
2022/07/08 02:41:54;;;;;;;10.05;4.65;;;15.60;99.90;;;;;;5033343;28;20197;-55
2022/07/08 02:44:19;;;;;;;9.57;3.92;;;15.40;99.90;;;;;;5033774;28;20170;-56
2022/07/08 02:46:46;;;;;;;6.32;3.85;;;15.30;99.90;;;;;;5033568;28;20251;-56
2022/07/08 02:49:12;;;;;;;11.55;3.92;;;15.10;99.90;;;;;;5033099;28;20174;-56
2022/07/08 02:51:38;;;;;;;10.13;4.35;;;15.00;99.90;;;;;;5033578;28;20188;-55
2022/07/08 02:54:05;;;;;;;8.50;3.80;;;15.00;99.90;;;;;;5033031;28;20617;-56
2022/07/08 02:56:32;;;;;;;8.25;3.90;;;15.00;99.90;;;;;;5033264;28;20297;-55
2022/07/08 02:58:59;;;;;;;12.65;4.38;;;15.00;99.90;;;;;;5033339;28;20178;-55
2022/07/08 03:01:28;;;;;;;9.43;4.13;;;15.00;99.90;;;;;;5033116;28;20166;-55
2022/07/08 03:03:53;;;;;;;8.52;4.13;;;15.00;99.90;;;;;;5032726;28;20173;-56
2022/07/08 03:06:19;;;;;;;14.88;4.35;;;15.00;99.90;;;;;;5033095;28;20253;-56
2022/07/08 03:08:45;;;;;;;9.52;4.15;;;14.90;99.90;;;;;;5033224;28;20174;-56
2022/07/08 03:11:11;;;;;;;11.05;4.05;;;14.90;99.90;;;;;;5032941;28;20233;-56
2022/07/08 03:13:37;;;;;;;7.45;3.85;;;15.00;99.90;;;;;;5032961;28;20180;-56
2022/07/08 03:16:04;;;;;;;7.43;3.35;;;15.00;99.90;;;;;;5033019;28;20206;-56
2022/07/08 03:18:34;;;;;;;10.55;4.07;;;15.00;99.90;;;;;;5032863;28;20174;-55
2022/07/08 03:21:00;;;;;;;8.80;3.25;;;15.00;99.90;;;;;;5032664;28;20253;-56
2022/07/08 03:23:26;;;;;;;6.90;3.58;;;15.10;99.90;;;;;;5032433;28;20257;-56
2022/07/08 03:25:52;;;;;;;7.05;3.60;;;15.10;99.90;;;;;;5032318;28;20316;-56
2022/07/08 03:28:18;;;;;;;10.77;3.88;;;15.10;99.90;;;;;;5032146;28;20231;-56
2022/07/08 03:30:43;;;;;;;6.15;2.95;;;15.10;99.90;;;;;;5031294;28;20705;-57
2022/07/08 03:33:09;;;;;;;5.72;3.17;;;15.10;99.90;;;;;;5032797;28;20265;-56
2022/07/08 03:35:35;;;;;;;8.65;3.63;;;15.10;99.90;;;;;;5031777;28;20184;-56
2022/07/08 03:38:01;;;;;;;6.82;3.30;;;15.20;99.90;;;;;;5032593;28;20665;-56
2022/07/08 03:43:11;;;;;;;7.68;3.38;;;15.30;99.90;;;;;;5032370;28;20200;-57
2022/07/08 03:45:36;;;;;;;5.10;3.08;;;15.40;99.90;;;;;;5032356;28;20637;-56
2022/07/08 03:48:03;;;;;;;10.98;3.03;;;15.40;99.90;;;;;;5032124;28;20182;-57
2022/07/08 03:50:30;;;;;;;4.57;3.35;;;15.50;99.90;;;;;;5032150;28;20178;-56
2022/07/08 03:52:56;;;;;;;10.25;3.45;;;15.50;99.90;;;;;;5032012;28;20612;-56
2022/07/08 03:55:23;;;;;;;5.85;3.42;;;15.50;99.90;;;;;;5021311;28;20257;-54
2022/07/08 03:57:49;;;;;;;6.70;3.42;;;15.40;99.90;;;;;;5031508;28;20189;-54
2022/07/08 04:00:15;;;;;;;5.60;2.88;;;15.60;99.90;;;;;;5031883;28;20170;-55
2022/07/08 04:02:41;;;;;;;6.95;3.33;;;15.40;99.90;;;;;;5031633;28;20185;-54
2022/07/08 04:05:07;;;;;;;7.13;3.50;;;15.30;99.90;;;;;;5031941;28;20228;-55
2022/07/08 04:07:34;;;;;;;12.93;3.13;;;15.20;99.90;;;;;;5031372;28;20174;-54
2022/07/08 04:10:00;;;;;;;9.95;3.50;;;15.20;99.90;;;;;;5032183;28;20185;-54
2022/07/08 04:12:27;;;;;;;7.00;3.38;;;15.00;99.90;;;;;;5031964;28;20182;-54
2022/07/08 04:14:53;;;;;;;7.70;3.20;;;15.00;99.90;;;;;;5030531;28;20683;-54
2022/07/08 04:17:19;;;;;;;6.10;2.85;;;15.00;99.90;;;;;;5031194;28;20214;-54
2022/07/08 04:19:44;;;;;;;10.65;3.22;;;15.00;99.90;;;;;;5031422;28;20193;-54
2022/07/08 04:22:10;;;;;;;7.60;3.28;;;15.00;99.90;;;;;;5031767;28;20240;-54
2022/07/08 04:24:36;;;;;;;12.30;3.40;;;15.00;99.90;;;;;;5030518;28;20659;-54
2022/07/08 04:27:02;;;;;;;6.78;3.53;;;16.70;99.90;;;;;;5031598;28;20600;-54
2022/07/08 04:29:28;;;;;;;5.05;3.20;;;15.00;99.90;;;;;;5031527;28;20182;-54
2022/07/08 04:31:53;;;;;;;4.65;3.08;;;15.00;99.90;;;;;;5028858;28;20181;-54
2022/07/08 04:34:19;;;;;;;5.80;2.92;;;15.00;99.90;;;;;;5031454;28;20257;-54
2022/07/08 04:36:45;;;;;;;7.15;2.95;;;15.00;99.90;;;;;;5031339;28;20233;-53
2022/07/08 04:39:11;;;;;;;8.90;3.78;;;15.00;99.90;;;;;;5031634;28;20169;-56
2022/07/08 04:41:37;;;;;;;7.10;3.40;;;15.00;99.90;;;;;;5031264;28;20170;-56
2022/07/08 04:44:03;;;;;;;8.32;3.28;;;15.00;99.90;;;;;;5031178;28;20181;-60
2022/07/08 04:46:29;;;;;;;7.25;3.13;;;15.00;99.90;;;;;;5030592;28;20205;-55
2022/07/08 04:48:55;;;;;;;6.30;3.05;;;15.00;99.90;;;;;;5030942;28;20729;-57
2022/07/08 04:51:21;;;;;;;6.72;3.17;;;15.00;99.90;;;;;;5031323;28;20257;-55
2022/07/08 04:53:46;;;;;;;7.72;3.38;;;15.00;99.90;;;;;;5031269;28;20202;-55
2022/07/08 04:56:12;;;;;;;4.60;3.30;;;15.00;99.90;;;;;;5031175;28;20256;-55
2022/07/08 04:58:38;;;;;;;7.90;3.45;;;15.10;99.90;;;;;;5031326;28;20181;-56
2022/07/08 05:01:04;;;;;;;6.38;3.58;;;15.10;99.90;;;;;;5030938;28;20182;-54
2022/07/08 05:03:30;;;;;;;4.72;3.30;;;15.10;99.90;;;;;;5030921;28;20237;-55
2022/07/08 05:05:55;;;;;;;7.53;3.50;;;15.10;99.90;;;;;;5031433;28;20170;-55
2022/07/08 05:08:21;;;;;;;6.38;3.53;;;15.10;99.90;;;;;;5031318;28;20173;-55
2022/07/08 05:10:48;;;;;;;10.10;3.70;;;15.10;99.90;;;;;;5030810;28;20704;-55
2022/07/08 05:13:14;;;;;;;9.20;3.45;;;15.00;99.90;;;;;;5031069;28;20181;-55
2022/07/08 05:15:40;;;;;;;7.45;3.92;;;15.00;99.90;;;;;;5030978;28;20308;-55
2022/07/08 05:18:06;;;;;;;8.00;3.22;;;15.00;99.90;;;;;;5031048;28;20182;-55
2022/07/08 05:20:32;;;;;;;7.70;3.25;;;15.10;99.90;;;;;;5031047;28;20201;-59
2022/07/08 05:22:58;;;;;;;6.97;3.38;;;15.20;99.90;;;;;;5030576;28;20263;-54
2022/07/08 05:25:24;;;;;;;5.75;3.00;;;15.20;99.90;;;;;;5030992;28;20166;-59
2022/07/08 05:27:49;;;;;;;6.10;3.65;;;15.20;99.90;;;;;;5030619;28;20178;-60
2022/07/08 05:30:15;;;;;;;8.00;3.20;;;15.20;99.90;;;;;;5030965;28;20177;-55
2022/07/08 05:32:42;;;;;;;10.48;3.70;;;15.30;99.90;;;;;;5030980;28;20266;-55
2022/07/08 05:35:11;;;;;;;9.32;3.50;;;15.30;99.90;;;;;;5030274;28;20178;-54
2022/07/08 05:37:40;;;;;;;7.53;3.70;;;15.30;99.90;;;;;;5030056;28;20209;-55
2022/07/08 05:40:08;;;;;;;7.93;3.67;;;15.40;99.90;;;;;;5030916;28;20177;-54
2022/07/08 05:42:34;;;;;;;4.63;3.20;;;15.50;99.90;;;;;;5030819;28;20204;-55
2022/07/08 05:45:00;;;;;;;6.28;3.15;;;15.50;99.90;;;;;;5031127;28;20192;-54
2022/07/08 05:47:26;;;;;;;10.65;3.05;;;15.50;99.90;;;;;;5030952;28;20644;-54
2022/07/08 05:49:52;;;;;;;4.40;2.83;;;15.60;99.90;;;;;;5029578;28;20186;-54
2022/07/08 05:52:18;;;;;;;5.93;3.25;;;15.60;99.90;;;;;;5030686;28;20668;-56
2022/07/08 05:54:45;;;;;;;9.90;3.80;;;15.70;99.90;;;;;;5030484;28;20170;-56
2022/07/08 05:57:12;;;;;;;6.63;3.47;;;15.70;99.90;;;;;;5030199;28;20205;-56
2022/07/08 05:59:38;;;;;;;7.45;3.55;;;15.80;99.90;;;;;;5030835;28;20171;-56
2022/07/08 06:02:04;;;;;;;6.95;3.00;;;15.80;99.90;;;;;;5030755;28;20182;-56
2022/07/08 06:04:30;;;;;;;8.98;3.10;;;15.90;99.90;;;;;;5030277;28;20173;-56
2022/07/08 06:06:56;;;;;;;9.23;3.60;;;16.50;99.90;;;;;;5030798;28;20182;-56
2022/07/08 06:09:22;;;;;;;5.97;3.25;;;16.10;99.90;;;;;;5030405;28;20173;-57
2022/07/08 06:11:48;;;;;;;8.50;3.15;;;16.00;99.90;;;;;;5030774;28;20174;-56
2022/07/08 06:14:14;;;;;;;10.43;3.47;;;16.30;99.90;;;;;;5030609;28;20166;-56
2022/07/08 06:16:40;;;;;;;8.60;3.30;;;16.30;99.90;;;;;;5030298;28;20702;-56
2022/07/08 06:19:06;;;;;;;8.07;3.28;;;16.40;99.90;;;;;;5030390;28;20671;-58
2022/07/08 06:21:32;;;;;;;7.50;3.08;;;;;;;;;;5030315;28;20629;-56
2022/07/08 06:23:58;;;;;;;5.13;2.60;;;16.60;99.90;;;;;;5030540;28;20245;-56
2022/07/08 06:26:24;;;;;;;6.15;2.88;;;16.70;99.90;;;;;;5030032;28;20260;-56
2022/07/08 06:28:50;;;;;;;4.00;1.70;;;16.80;99.90;;;;;;5030808;28;20184;-56
2022/07/08 06:31:16;;;;;;;2.40;1.63;;;16.80;99.90;;;;;;5033454;28;20252;-56
2022/07/08 06:33:42;;;;;;;6.40;1.75;;;16.90;99.90;;;;;;5032373;28;20258;-56
2022/07/08 06:36:08;;;;;;;4.82;1.77;;;17.10;99.90;;;;;;5033542;28;20680;-56
2022/07/08 06:38:34;;;;;;;3.50;1.48;;;17.20;99.90;;;;;;5033474;28;20169;-56
2022/07/08 06:41:02;;;;;;;2.08;1.42;;;16.30;99.90;;;;;;5032511;28;20178;-56
2022/07/08 06:43:28;;;;;;;4.57;1.50;;;17.80;99.90;;;;;;5033799;28;20169;-55
2022/07/08 06:45:54;;;;;;;3.50;1.58;;;17.50;99.90;;;;;;5033867;28;20166;-55
2022/07/08 06:48:20;;;;;;;3.85;1.60;;;17.60;99.90;;;;;;5033213;28;20181;-55
2022/07/08 06:50:45;;;;;;;1.45;1.30;;;17.70;99.90;;;;;;5033498;28;20644;-55
2022/07/08 06:53:11;;;;;;;2.90;1.45;;;17.70;99.90;;;;;;5033293;28;20652;-55
2022/07/08 06:55:37;;;;;;;4.82;1.63;;;17.80;99.90;;;;;;5033615;28;20174;-55
2022/07/08 06:58:03;;;;;;;4.43;1.80;;;17.90;99.90;;;;;;5033029;28;20667;-55
2022/07/08 07:00:30;;;;;;;3.60;1.80;;;18.00;99.90;;;;;;5033585;28;20174;-55
2022/07/08 07:02:56;;;;;;;3.92;1.98;;;18.00;99.90;;;;;;5033271;28;20182;-55
2022/07/08 07:05:25;;;;;;;4.20;2.00;;;18.00;99.90;;;;;;5033523;28;20176;-55
2022/07/08 07:07:51;;;;;;;5.90;1.77;;;18.10;99.90;;;;;;5032887;28;20169;-54
2022/07/08 07:10:17;;;;;;;2.83;1.70;;;18.20;99.90;;;;;;5033808;28;20260;-55
2022/07/08 07:12:42;;;;;;;7.18;1.75;;;18.30;99.90;;;;;;5033177;28;20636;-56
2022/07/08 07:15:09;;;;;;;2.95;1.50;;;18.30;99.90;;;;;;5032881;28;20174;-59
2022/07/08 07:17:35;;;;;;;3.30;1.70;;;18.40;99.90;;;;;;5032798;28;20217;-60
2022/07/08 07:20:01;;;;;;;2.72;1.27;;;18.40;99.90;;;;;;5032417;28;20219;-60
2022/07/08 07:22:27;;;;;;;3.88;1.05;;;18.40;99.90;;;;;;5031814;28;20225;-61
2022/07/08 07:24:52;;;;;;;3.25;1.40;;;18.50;99.90;;;;;;5035488;28;20248;-61
2022/07/08 07:27:18;;;;;;;3.13;1.20;;;18.70;99.90;;;;;;5032749;28;20198;-61
2022/07/08 07:29:44;;;;;;;2.55;1.23;;;18.70;99.90;;;;;;5032732;28;20178;-61
2022/07/08 07:32:10;;;;;;;2.35;1.25;;;18.70;99.90;;;;;;5031734;28;20641;-62
2022/07/08 07:34:35;;;;;;;4.75;1.35;;;18.80;99.90;;;;;;5033384;28;20188;-60
2022/07/08 07:37:01;;;;;;;2.20;1.00;;;18.90;99.90;;;;;;5030007;28;20703;-59
2022/07/08 07:39:27;;;;;;;4.90;1.25;;;19.00;99.90;;;;;;5032171;28;20265;-59
2022/07/08 07:41:53;;;;;;;2.28;1.23;;;19.10;99.90;;;;;;5033241;28;20182;-58
2022/07/08 07:44:19;;;;;;;2.17;1.05;;;19.10;99.90;;;;;;5031969;28;20697;-59
2022/07/08 07:46:45;;;;;;;3.45;1.60;;;19.20;99.90;;;;;;5031723;28;20170;-58
2022/07/08 07:49:11;;;;;;;2.70;1.10;;;19.20;99.90;;;;;;5032147;28;20529;-58
2022/07/08 07:51:37;;;;;;;4.53;1.10;;;19.30;99.90;;;;;;5032233;28;20227;-57
2022/07/08 07:54:03;;;;;;;3.13;1.05;;;19.40;99.90;;;;;;5032519;28;20166;-57
2022/07/08 07:56:28;;;;;;;4.00;1.10;;;19.40;99.90;;;;;;5032062;28;20296;-58
2022/07/08 07:58:54;;;;;;;4.60;1.10;;;19.40;99.90;;;;;;5031975;28;20250;-58
2022/07/08 08:01:20;;;;;;;3.00;1.15;;;19.50;99.90;;;;;;5032171;28;20178;-59
2022/07/08 08:03:46;;;;;;;2.35;0.90;;;19.50;99.90;;;;;;5032332;28;20166;-59
2022/07/08 08:06:12;;;;;;;2.22;1.00;;;19.60;99.90;;;;;;5050464;28;20248;-59
2022/07/08 08:08:37;;;;;;;2.30;1.10;;;19.70;99.90;;;;;;5032161;28;20170;-59
2022/07/08 08:11:03;;;;;;;3.63;1.00;;;19.80;99.90;;;;;;5031811;28;20593;-60
2022/07/08 08:13:30;;;;;;;9.77;1.00;;;19.80;99.90;;;;;;5032268;28;20173;-58
2022/07/08 08:15:56;;;;;;;2.00;1.13;;;19.90;99.90;;;;;;5031892;28;20285;-58
2022/07/08 08:18:22;;;;;;;4.55;1.00;;;18.80;99.90;;;;;;5031785;28;20217;-58
2022/07/08 08:20:48;;;;;;;2.25;0.98;;;20.10;99.90;;;;;;5031805;28;20229;-59
2022/07/08 08:23:14;;;;;;;2.28;0.98;;;20.10;99.90;;;;;;5031383;28;20213;-58
2022/07/08 08:25:41;;;;;;;2.40;0.95;;;20.30;99.90;;;;;;5031401;28;20608;-61
2022/07/08 08:28:07;;;;;;;2.45;1.17;;;20.40;99.90;;;;;;5031919;28;20178;-60
2022/07/08 08:30:33;;;;;;;8.23;1.10;;;20.50;99.90;;;;;;5031791;28;20193;-59
2022/07/08 08:32:58;;;;;;;2.08;0.85;;;20.60;99.90;;;;;;5031765;28;20178;-59
2022/07/08 08:35:24;;;;;;;5.25;0.98;;;20.80;99.90;;;;;;5031660;28;20528;-59
2022/07/08 08:37:52;;;;;;;2.10;0.98;;;20.70;99.90;;;;;;5031279;28;20249;-55
2022/07/08 08:40:21;;;;;;;2.13;0.90;;;20.90;99.90;;;;;;5031301;28;20174;-57
2022/07/08 08:42:48;;;;;;;3.85;0.95;;;21.00;99.90;;;;;;5031716;28;20544;-57
2022/07/08 08:45:14;;;;;;;3.72;1.20;;;21.40;99.90;;;;;;5031506;28;20225;-56
2022/07/08 08:47:40;;;;;;;2.35;1.10;;;21.30;99.90;;;;;;5031236;28;20182;-58
2022/07/08 08:52:54;;;;;;;8.45;0.90;;;22.00;99.90;;;;;;5031284;28;20267;-57
2022/07/08 08:55:27;;;;;;;6.20;1.40;;;22.50;99.90;;;;;;5031631;28;20174;-57
2022/07/08 08:58:04;;;;;;;5.30;1.30;;;22.70;99.90;;;;;;5031161;28;20209;-57
2022/07/08 09:00:32;;;;;;;1.92;1.10;;;22.80;99.90;;;;;;5031290;28;20208;-57
2022/07/08 09:02:59;;;;;;;2.13;0.90;;;22.80;99.90;;;;;;5030957;28;20176;-57
2022/07/08 09:05:25;;;;;;;1.40;0.80;;;23.20;99.90;;;;;;5030933;28;20670;-57
2022/07/08 09:07:52;;;;;;;2.80;1.20;;;23.40;99.90;;;;;;5030679;28;20178;-56
2022/07/08 09:10:18;;;;;;;3.70;1.30;;;23.60;99.90;;;;;;5029857;28;20200;-57
2022/07/08 09:13:00;;;;;;;3.60;1.08;;;24.00;99.90;;;;;;5029895;28;20174;-58
2022/07/08 09:15:44;;;;;;;3.47;0.95;;;24.10;99.90;;;;;;5030685;28;20174;-56
2022/07/08 09:18:12;;;;;;;3.33;1.25;;;24.20;99.90;;;;;;5028548;28;20276;-57
2022/07/08 09:20:58;;;;;;;4.75;1.00;;;24.40;99.90;;;;;;5030671;28;20698;-56
2022/07/08 09:23:31;;;;;;;5.55;1.42;;;24.30;99.90;;;;;;5031301;28;20235;-59
2022/07/08 09:26:01;;;;;;;2.63;1.20;;;24.60;99.90;;;;;;5031075;28;20174;-57
2022/07/08 09:28:32;;;;;;;6.75;1.00;;;24.70;99.90;;;;;;5030655;28;20203;-56
2022/07/08 09:30:59;;;;;;;4.68;1.13;;;25.00;99.90;;;;;;5030943;28;20178;-56
2022/07/08 09:33:25;;;;;;;4.15;1.10;;;25.30;99.90;;;;;;5030954;28;20170;-56
2022/07/08 09:35:53;;;;;;;2.60;1.50;;;25.40;99.90;;;;;;5030790;28;20166;-56
2022/07/08 09:38:20;;;;;;;6.30;1.17;;;25.20;99.90;;;;;;5031036;28;20182;-57
2022/07/08 09:40:56;;;;;;;3.97;1.25;;;24.80;99.90;;;;;;5029080;28;20170;-58
2022/07/08 09:43:22;;;;;;;3.80;1.10;;;25.10;99.90;;;;;;5030472;28;20180;-57
2022/07/08 09:45:48;;;;;;;4.88;1.33;;;25.40;99.90;;;;;;5029739;28;20166;-57
2022/07/08 09:48:14;;;;;;;1.30;0.95;;;25.90;99.90;;;;;;5030591;28;20166;-57
2022/07/08 09:50:42;;;;;;;2.30;0.93;;;25.80;99.90;;;;;;5030609;28;20203;-57
2022/07/08 09:53:17;;;;;;;5.53;1.23;;;26.00;99.90;;;;;;5030608;28;20324;-56
2022/07/08 09:55:53;;;;;;;4.38;1.50;;;26.20;99.90;;;;;;5028466;28;20648;-57
2022/07/08 09:58:26;;;;;;;4.38;1.27;;;26.40;99.90;;;;;;5028836;28;20170;-58
2022/07/08 10:00:54;;;;;;;4.15;1.00;;;26.80;99.90;;;;;;5029092;28;20200;-58
2022/07/08 10:03:21;;;;;;;3.20;1.50;;;26.70;99.90;;;;;;5028899;28;20265;-58
2022/07/08 10:05:48;;;;;;;5.60;1.10;;;26.50;99.90;;;;;;5031776;28;20677;-58
2022/07/08 10:08:15;;;;;;;1.70;1.30;;;26.30;99.90;;;;;;5033332;28;20170;-58
2022/07/08 10:10:44;;;;;;;4.07;1.25;;;26.30;99.90;;;;;;5034458;28;20201;-58
2022/07/08 10:13:10;;;;;;;3.92;1.20;;;26.30;99.90;;;;;;5034440;28;20187;-58
2022/07/08 10:15:37;;;;;;;4.90;1.40;;;26.50;99.90;;;;;;5034509;28;20166;-58
2022/07/08 10:18:17;;;;;;;3.05;1.10;;;26.90;99.90;;;;;;5034370;28;20223;-58
2022/07/08 10:20:52;;;;;;;2.92;1.17;;;26.80;99.90;;;;;;5034149;28;20352;-58
2022/07/08 10:23:29;;;;;;;3.08;1.00;;;26.90;99.90;;;;;;5034149;28;20662;-56
2022/07/08 10:25:59;;;;;;;0.95;0.70;;;26.70;99.90;;;;;;5034214;28;20215;-57
2022/07/08 10:28:43;;;;;;;3.70;1.00;;;27.00;99.90;;;;;;5034241;28;20265;-57
2022/07/08 10:31:17;;;;;;;2.17;0.90;;;27.60;99.90;;;;;;5034408;28;20174;-57
2022/07/08 10:33:46;;;;;;;4.93;0.90;;;27.50;99.90;;;;;;5034063;28;20242;-57
2022/07/08 10:36:12;;;;;;;2.92;0.80;;;27.70;99.90;;;;;;5034185;28;20216;-57
2022/07/08 10:38:43;;;;;;;1.80;0.80;;;27.60;99.90;;;;;;5033967;28;20546;-58
2022/07/08 10:41:11;;;;;;;5.50;0.77;;;27.80;99.90;;;;;;5033928;28;20181;-57
2022/07/08 10:43:48;;;;;;;1.10;0.60;;;27.90;99.90;;;;;;5033851;28;20612;-57
2022/07/08 10:46:17;;;;;;;2.15;1.10;;;27.50;99.90;;;;;;5033806;28;20188;-57
2022/07/08 10:48:45;;;;;;;3.15;0.93;;;27.40;99.90;;;;;;5033837;28;20180;-58
2022/07/08 10:51:20;;;;;;;4.43;0.73;;;27.10;99.90;;;;;;5033890;28;20235;-57
2022/07/08 10:53:53;;;;;;;2.35;0.90;;;27.40;99.90;;;;;;5033663;28;20244;-57
2022/07/08 10:56:50;;;;;;;2.17;0.80;;;27.50;99.90;;;;;;5033678;28;20279;-58
2022/07/08 10:59:22;;;;;;;1.50;0.70;;;27.10;99.90;;;;;;5033801;28;20226;-57
2022/07/08 11:01:52;;;;;;;1.25;0.60;;;27.10;99.90;;;;;;5033636;28;20185;-58
2022/07/08 11:04:21;;;;;;;1.38;0.70;;;27.60;99.90;;;;;;5033694;28;20177;-57
2022/07/08 11:06:47;;;;;;;3.45;0.90;;;28.10;99.90;;;;;;5033570;28;20182;-57
2022/07/08 11:09:19;;;;;;;3.28;0.95;;;28.60;99.90;;;;;;5033360;28;20182;-57
2022/07/08 11:11:45;;;;;;;4.65;1.80;;;28.50;99.90;;;;;;5033341;28;20188;-57
2022/07/08 11:14:14;;;;;;;1.67;0.73;;;28.60;99.90;;;;;;5033360;28;20193;-57
2022/07/08 11:16:41;;;;;;;1.88;0.90;;;28.70;99.90;;;;;;5032806;28;20240;-57
2022/07/08 11:19:07;;;;;;;1.05;0.80;;;29.30;99.90;;;;;;5033219;28;20181;-57
2022/07/08 11:21:33;;;;;;;2.53;0.90;;;29.20;99.90;;;;;;5032873;28;20222;-57
2022/07/08 11:23:59;;;;;;;2.88;0.80;;;29.30;99.90;;;;;;5033142;28;20174;-57
2022/07/08 11:26:25;;;;;;;2.85;0.90;;;29.20;99.90;;;;;;5033086;28;20180;-56
2022/07/08 11:28:50;;;;;;;1.50;0.70;;;28.90;99.90;;;;;;5032999;28;20536;-57
2022/07/08 11:31:34;;;;;;;1.98;1.00;;;28.80;99.90;;;;;;5032992;28;20177;-57
2022/07/08 11:34:00;;;;;;;4.15;0.90;;;29.10;99.90;;;;;;5032982;28;20542;-57
2022/07/08 11:36:26;;;;;;;1.88;0.98;;;29.20;99.90;;;;;;5032731;28;20672;-58
2022/07/08 11:38:51;;;;;;;2.90;0.95;;;29.10;99.90;;;;;;5033229;28;20181;-58
2022/07/08 11:41:20;;;;;;;1.83;0.90;;;29.60;99.90;;;;;;5031942;28;20228;-58
2022/07/08 11:43:47;;;;;;;1.17;0.80;;;29.70;99.90;;;;;;5032870;28;20209;-58
2022/07/08 11:46:21;;;;;;;4.50;1.38;;;29.70;99.90;;;;;;5045433;28;20643;-58
2022/07/08 11:48:47;;;;;;;6.97;1.10;;;29.70;99.90;;;;;;5029006;28;20562;-58
2022/07/08 11:51:14;;;;;;;1.73;1.00;;;30.20;99.90;;;;;;5031785;28;20174;-58
2022/07/08 11:53:40;;;;;;;1.58;1.10;;;30.10;99.90;;;;;;5032252;28;20170;-58
2022/07/08 11:56:06;;;;;;;2.08;1.20;;;29.90;99.90;;;;;;5032401;28;20342;-57
2022/07/08 11:58:32;;;;;;;2.47;1.17;;;30.30;99.90;;;;;;5032462;28;20198;-58
2022/07/08 12:00:58;;;;;;;2.70;1.20;;;30.60;99.90;;;;;;5032385;28;20258;-58
2022/07/08 12:03:27;;;;;;;2.97;1.30;;;31.00;99.90;;;;;;5032377;28;20181;-57
2022/07/08 12:05:52;;;;;;;2.47;1.13;;;30.60;99.90;;;;;;5032578;28;20198;-58
2022/07/08 12:08:18;;;;;;;6.68;0.88;;;30.90;99.90;;;;;;5031579;28;20632;-58
2022/07/08 12:10:45;;;;;;;1.63;0.90;;;31.50;99.90;;;;;;5032086;28;20259;-58
2022/07/08 12:13:11;;;;;;;3.95;1.05;;;30.90;99.90;;;;;;5030910;28;20625;-58
2022/07/08 12:15:37;;;;;;;2.05;0.90;;;30.80;99.90;;;;;;5031783;28;20170;-58
2022/07/08 12:18:04;;;;;;;2.08;0.93;;;30.90;99.90;;;;;;5031410;28;20710;-58
2022/07/08 12:20:35;;;;;;;3.00;1.23;;;31.10;99.90;;;;;;5031248;28;20192;-58
2022/07/08 12:23:01;;;;;;;3.08;1.00;;;32.00;99.90;;;;;;5031676;28;20177;-58
2022/07/08 12:25:28;;;;;;;4.22;1.20;;;31.40;99.90;;;;;;5032035;28;20180;-58
2022/07/08 12:28:03;;;;;;;3.10;1.10;;;31.10;99.90;;;;;;5031214;28;20648;-59
2022/07/08 12:30:30;;;;;;;4.00;0.90;;;31.50;99.90;;;;;;5030725;28;20184;-58
2022/07/08 12:33:01;;;;;;;2.75;0.95;;;30.70;99.90;;;;;;5032018;28;20182;-58
2022/07/08 12:35:32;;;;;;;3.45;1.08;;;30.50;99.90;;;;;;5031383;28;20180;-57
2022/07/08 12:38:10;;;;;;;3.08;1.20;;;31.20;99.90;;;;;;5031460;28;20240;-57
2022/07/08 12:40:38;;;;;;;3.88;1.38;;;31.30;99.90;;;;;;5030464;28;20177;-57
2022/07/08 12:43:05;;;;;;;5.25;1.15;;;31.60;99.90;;;;;;5031198;28;20644;-58
2022/07/08 12:45:31;;;;;;;4.55;1.08;;;31.90;99.90;;;;;;5030634;28;20173;-57
2022/07/08 12:47:58;;;;;;;2.70;1.08;;;31.60;99.90;;;;;;5031323;28;20679;-57
2022/07/08 12:50:25;;;;;;;3.00;1.30;;;31.60;99.90;;;;;;5031105;28;20214;-57
2022/07/08 12:52:51;;;;;;;2.50;1.08;;;31.70;99.90;;;;;;5031430;28;20228;-57